Time;durP1;ratioP1;P1;durP2;ratioP2;P2;SDS_P1;SDS_P2;PMS_P1;PMS_P2;Temp;Humidity;BMP_temperature;BMP_pressure;BME280_temperature;BME280_humidity;BME280_pressure;Samples;Min_cycle;Max_cycle;Signal;HPM_P1;HPM_P2
2022/11/20 00:00:19;;;;;;;20.08;10.90;;;;;;;-1.95;100.00;100441.00;6463279;23;20000;-76
2022/11/20 00:02:50;;;;;;;20.70;11.35;;;;;;;-1.89;100.00;100442.75;6463221;23;20007;-72
2022/11/20 00:05:20;;;;;;;18.55;10.00;;;;;;;-1.71;100.00;100438.72;6452979;23;20004;-75
2022/11/20 00:07:51;;;;;;;20.88;10.27;;;;;;;-1.64;100.00;100438.78;6463588;23;20312;-75
2022/11/20 00:10:21;;;;;;;23.08;10.65;;;;;;;-1.65;100.00;100429.41;6463517;23;20023;-76
2022/11/20 00:12:51;;;;;;;18.92;10.52;;;;;;;-1.66;100.00;100429.38;6463381;23;20004;-75
2022/11/20 00:15:22;;;;;;;19.70;10.20;;;;;;;-1.76;100.00;100428.41;6462569;23;20004;-76
2022/11/20 00:17:52;;;;;;;18.05;10.05;;;;;;;-1.65;100.00;100423.41;6463360;23;20255;-75
2022/11/20 00:20:23;;;;;;;19.27;10.75;;;;;;;-1.64;100.00;100422.56;6462769;23;20051;-75
2022/11/20 00:22:53;;;;;;;20.70;9.82;;;;;;;-1.65;100.00;100426.84;6464409;23;20076;-75
2022/11/20 00:25:23;;;;;;;22.02;10.45;;;;;;;-1.53;100.00;100418.41;6461424;23;20484;-76
2022/11/20 00:27:54;;;;;;;16.00;9.25;;;;;;;-1.60;100.00;100416.66;6463291;23;20482;-75
2022/11/20 00:30:24;;;;;;;18.35;9.98;;;;;;;-1.56;100.00;100418.38;6462311;23;20007;-76
2022/11/20 00:32:56;;;;;;;18.13;9.23;;;;;;;-1.43;100.00;100425.34;6463132;23;20007;-75
2022/11/20 00:35:26;;;;;;;18.85;9.27;;;;;;;-1.29;100.00;100414.38;6451972;23;20004;-76
2022/11/20 00:37:56;;;;;;;17.98;9.38;;;;;;;-1.31;100.00;100417.75;6462892;23;20118;-72
2022/11/20 00:40:27;;;;;;;16.52;8.65;;;;;;;-1.38;100.00;100419.41;6463609;23;20490;-75
2022/11/20 00:42:57;;;;;;;17.35;8.93;;;;;;;-1.71;100.00;100418.22;6463575;23;20000;-75
2022/11/20 00:45:27;;;;;;;17.55;9.40;;;;;;;-2.01;100.00;100419.59;6462394;23;20419;-76
2022/11/20 00:47:58;;;;;;;17.42;8.68;;;;;;;-1.97;100.00;100419.63;6463039;23;20446;-75
2022/11/20 00:50:28;;;;;;;20.83;10.57;;;;;;;-2.09;100.00;100414.38;6463149;23;20004;-76
2022/11/20 00:52:58;;;;;;;17.75;9.32;;;;;;;-2.18;100.00;100429.59;6463057;23;20000;-75
2022/11/20 00:55:28;;;;;;;16.70;9.10;;;;;;;-2.17;100.00;100426.22;6461294;23;20051;-76
2022/11/20 00:57:59;;;;;;;17.70;8.73;;;;;;;-2.28;100.00;100420.13;6462297;23;20006;-76
2022/11/20 01:00:29;;;;;;;19.17;9.68;;;;;;;-2.14;100.00;100413.44;6425188;23;20054;-76
2022/11/20 01:02:59;;;;;;;19.85;9.75;;;;;;;-2.23;100.00;100423.59;6462735;23;20053;-76
2022/11/20 01:05:34;;;;;;;19.20;9.82;;;;;;;-2.27;100.00;100418.41;6462709;23;20004;-75
2022/11/20 01:08:04;;;;;;;18.92;9.55;;;;;;;-2.38;100.00;100425.94;6462546;23;20000;-76
2022/11/20 01:10:35;;;;;;;19.02;9.63;;;;;;;-2.46;100.00;100414.75;6462834;23;20320;-75
2022/11/20 01:15:54;;;;;;;17.48;9.82;;;;;;;-2.30;100.00;100420.91;6462477;23;19996;-76
2022/11/20 01:18:24;;;;;;;16.77;8.77;;;;;;;-2.15;100.00;100416.84;6463047;23;20000;-75
2022/11/20 01:20:55;;;;;;;14.07;7.78;;;;;;;-2.20;100.00;100413.38;6462702;23;20073;-75
2022/11/20 01:23:25;;;;;;;16.60;8.57;;;;;;;-2.41;100.00;100413.13;6462358;23;20226;-75
2022/11/20 01:25:55;;;;;;;14.43;7.82;;;;;;;-2.51;100.00;100413.81;6461919;23;20035;-76
2022/11/20 01:28:25;;;;;;;23.30;9.10;;;;;;;-2.65;100.00;100402.53;6452221;23;20066;-75
2022/11/20 01:30:56;;;;;;;15.75;8.15;;;;;;;-2.68;100.00;100401.66;6462675;23;20010;-75
2022/11/20 01:33:26;;;;;;;14.05;8.13;;;;;;;-2.75;100.00;100403.25;6463201;23;20062;-75
2022/11/20 01:36:05;;;;;;;20.50;8.52;;;;;;;-2.65;100.00;100389.75;6461902;23;20074;-75
2022/11/20 01:38:35;;;;;;;17.05;8.35;;;;;;;-2.58;100.00;100394.13;6463615;23;20035;-75
2022/11/20 01:41:07;;;;;;;14.05;7.93;;;;;;;-2.74;100.00;100389.63;6462748;23;20010;-75
2022/11/20 01:43:37;;;;;;;15.63;8.43;;;;;;;-2.74;100.00;100392.19;6442234;23;20054;-75
2022/11/20 01:46:15;;;;;;;17.90;8.65;;;;;;;-2.81;100.00;100380.19;6460045;23;20457;-76
2022/11/20 01:48:56;;;;;;;16.10;8.10;;;;;;;-2.79;100.00;100378.50;6461445;23;20004;-76
2022/11/20 01:51:34;;;;;;;17.70;8.13;;;;;;;-2.88;100.00;100378.34;6462538;23;20319;-73
2022/11/20 01:54:09;;;;;;;15.70;8.50;;;;;;;-2.89;100.00;100376.63;6462844;23;19996;-76
2022/11/20 01:56:44;;;;;;;16.70;8.23;;;;;;;-2.92;100.00;100368.91;6460112;23;20058;-76
2022/11/20 01:59:18;;;;;;;12.70;6.87;;;;;;;-2.91;100.00;100372.31;6461989;23;20031;-76
2022/11/20 02:01:49;;;;;;;14.07;8.05;;;;;;;-2.94;100.00;100364.63;6462910;23;20235;-76
2022/11/20 02:04:20;;;;;;;15.48;7.97;;;;;;;-3.18;100.00;100371.94;6463027;23;20000;-75
2022/11/20 02:07:00;;;;;;;17.45;8.85;;;;;;;-3.15;100.00;100361.75;6452606;23;20004;-76
2022/11/20 02:09:31;;;;;;;17.38;9.05;;;;;;;-3.19;100.00;100363.38;6462556;23;20022;-73
2022/11/20 02:12:03;;;;;;;17.23;9.02;;;;;;;-3.15;100.00;100366.84;6462489;23;20387;-76
2022/11/20 02:14:33;;;;;;;17.00;8.38;;;;;;;-3.03;100.00;100369.59;6462583;23;20004;-76
2022/11/20 02:17:04;;;;;;;18.25;9.18;;;;;;;-3.13;100.00;100366.06;6462097;23;20053;-76
2022/11/20 02:19:34;;;;;;;17.13;8.60;;;;;;;-3.13;100.00;100360.94;6461934;23;20007;-76
2022/11/20 02:22:07;;;;;;;15.98;8.93;;;;;;;-2.97;100.00;100356.91;6461826;23;20012;-75
2022/11/20 02:24:39;;;;;;;17.10;8.93;;;;;;;-3.00;100.00;100365.38;6424849;23;20012;-76
2022/11/20 02:27:13;;;;;;;16.55;8.63;;;;;;;-3.01;100.00;100350.03;6452015;23;20035;-76
2022/11/20 02:30:03;;;;;;;17.10;9.05;;;;;;;-2.95;100.00;100356.09;6462656;23;20007;-76
2022/11/20 02:32:35;;;;;;;17.73;9.52;;;;;;;-2.95;100.00;100353.56;6462483;23;20083;-76
2022/11/20 02:35:18;;;;;;;17.75;8.93;;;;;;;-3.00;100.00;100344.09;6462848;23;20004;-75
2022/11/20 02:37:52;;;;;;;20.30;10.00;;;;;;;-3.06;100.00;100349.13;6425325;23;20313;-75
2022/11/20 02:40:22;;;;;;;17.42;9.75;;;;;;;-3.09;100.00;100349.94;6424306;23;20011;-76
2022/11/20 02:42:56;;;;;;;17.63;9.55;;;;;;;-3.02;100.00;100351.72;6451500;23;20004;-75
2022/11/20 02:45:27;;;;;;;18.20;9.40;;;;;;;-3.03;100.00;100344.06;6461993;23;20043;-76
2022/11/20 02:47:57;;;;;;;17.10;9.27;;;;;;;-2.93;100.00;100345.88;6461660;23;20008;-75
2022/11/20 02:50:27;;;;;;;18.95;9.82;;;;;;;-2.98;100.00;100342.41;6462028;23;20043;-75
2022/11/20 02:52:58;;;;;;;17.02;8.75;;;;;;;-2.97;100.00;100350.13;6424703;23;20095;-76
2022/11/20 02:55:28;;;;;;;19.35;9.80;;;;;;;-2.73;100.00;100342.78;6460979;23;20040;-75
2022/11/20 02:57:58;;;;;;;19.42;9.77;;;;;;;-2.77;100.00;100343.59;6461111;23;20061;-76
2022/11/20 03:00:29;;;;;;;19.52;9.80;;;;;;;-2.36;100.00;100333.88;6462083;23;20004;-76
2022/11/20 03:02:59;;;;;;;18.02;9.23;;;;;;;-2.64;100.00;100339.47;6464160;23;20038;-76
2022/11/20 03:05:29;;;;;;;16.23;9.02;;;;;;;-2.55;100.00;100343.00;6463858;23;20450;-75
2022/11/20 03:08:00;;;;;;;16.85;8.95;;;;;;;-2.40;100.00;100340.66;6464106;23;20004;-75
2022/11/20 03:10:30;;;;;;;18.60;9.55;;;;;;;-2.29;100.00;100333.97;6426103;23;20000;-76
2022/11/20 03:13:00;;;;;;;15.68;8.50;;;;;;;-2.41;100.00;100336.38;6463617;23;20077;-75
2022/11/20 03:15:31;;;;;;;16.45;9.25;;;;;;;-2.55;100.00;100330.22;6462238;23;20423;-76
2022/11/20 03:18:01;;;;;;;17.27;8.38;;;;;;;-2.56;100.00;100340.41;6425654;23;20027;-76
2022/11/20 03:20:33;;;;;;;16.58;8.65;;;;;;;-2.50;100.00;100343.91;6462930;23;20039;-73
2022/11/20 03:23:04;;;;;;;17.23;8.80;;;;;;;-2.30;100.00;100332.22;6464001;23;20000;-74
2022/11/20 03:25:34;;;;;;;17.02;9.13;;;;;;;-2.35;100.00;100335.59;6463522;23;20011;-75
2022/11/20 03:28:04;;;;;;;17.63;8.73;;;;;;;-2.37;100.00;100329.59;6463319;23;20347;-75
2022/11/20 03:30:34;;;;;;;26.30;12.98;;;;;;;-2.48;100.00;100324.34;6462873;23;20004;-75
2022/11/20 03:33:05;;;;;;;38.90;16.33;;;;;;;-2.66;100.00;100336.06;6426761;23;20509;-75
2022/11/20 03:35:35;;;;;;;17.05;9.15;;;;;;;-2.68;100.00;100343.69;6463293;23;20008;-74
2022/11/20 03:38:05;;;;;;;16.92;8.80;;;;;;;-2.57;100.00;100331.03;6464844;23;20075;-75
2022/11/20 03:40:36;;;;;;;17.88;9.43;;;;;;;-2.45;100.00;100326.97;6463997;23;20011;-75
2022/11/20 03:43:06;;;;;;;15.48;8.68;;;;;;;-2.20;100.00;100328.94;6464332;23;20420;-74
2022/11/20 03:45:36;;;;;;;13.70;7.82;;;;;;;-2.36;100.00;100321.94;6462962;23;20020;-75
2022/11/20 03:48:06;;;;;;;18.13;8.68;;;;;;;-2.42;100.00;100321.88;6463371;23;20003;-75
2022/11/20 03:50:37;;;;;;;14.30;8.35;;;;;;;-2.40;100.00;100320.19;6463312;23;20090;-76
2022/11/20 03:53:07;;;;;;;15.55;8.57;;;;;;;-2.33;100.00;100311.72;6425762;23;20698;-75
2022/11/20 03:55:37;;;;;;;18.20;8.48;;;;;;;-2.22;100.00;100305.03;6462134;23;20000;-75
2022/11/20 03:58:08;;;;;;;17.05;8.88;;;;;;;-2.48;100.00;100305.59;6461512;23;20000;-76
2022/11/20 04:00:38;;;;;;;15.40;8.40;;;;;;;-2.17;100.00;100302.53;6423594;23;20115;-74
2022/11/20 04:03:09;;;;;;;28.42;12.80;;;;;;;-1.97;100.00;100304.44;6462661;23;20013;-75
2022/11/20 04:05:39;;;;;;;23.85;11.60;;;;;;;-2.38;100.00;100303.16;6460903;23;20091;-75
2022/11/20 04:08:09;;;;;;;14.55;8.25;;;;;;;-2.60;100.00;100301.19;6453309;23;20054;-75
2022/11/20 04:10:40;;;;;;;17.08;8.77;;;;;;;-2.71;100.00;100301.91;6463680;23;20007;-76
2022/11/20 04:13:10;;;;;;;17.83;8.70;;;;;;;-2.37;100.00;100301.47;6461674;23;20347;-75
2022/11/20 04:15:40;;;;;;;16.08;8.70;;;;;;;-2.51;100.00;100296.16;6460721;23;20004;-76
2022/11/20 04:18:10;;;;;;;15.13;8.18;;;;;;;-2.55;100.00;100289.31;6462273;23;20007;-75
2022/11/20 04:20:41;;;;;;;16.85;8.70;;;;;;;-2.62;100.00;100291.78;6460518;23;20086;-75
2022/11/20 04:23:11;;;;;;;16.70;8.77;;;;;;;-2.65;100.00;100292.59;6462855;23;20000;-75
2022/11/20 04:25:41;;;;;;;16.15;9.00;;;;;;;-2.54;100.00;100292.75;6463829;23;20083;-74
2022/11/20 04:28:11;;;;;;;18.27;8.98;;;;;;;-2.74;100.00;100286.50;6463209;23;20424;-76
2022/11/20 04:30:42;;;;;;;17.75;8.68;;;;;;;-2.53;100.00;100295.28;6463505;23;20000;-75
2022/11/20 04:33:12;;;;;;;17.80;8.65;;;;;;;-2.50;100.00;100292.78;6426448;23;20169;-75
2022/11/20 04:35:46;;;;;;;14.55;8.13;;;;;;;-2.68;100.00;100292.56;6452511;23;20000;-75
2022/11/20 04:38:17;;;;;;;15.48;8.63;;;;;;;-2.53;100.00;100282.50;6463237;23;20053;-75
2022/11/20 04:40:47;;;;;;;15.57;8.65;;;;;;;-2.74;100.00;100287.38;6463926;23;20000;-76
2022/11/20 04:43:18;;;;;;;15.18;8.32;;;;;;;-2.74;100.00;100287.38;6464646;23;20039;-75
2022/11/20 04:45:52;;;;;;;15.23;8.75;;;;;;;-2.84;100.00;100293.19;6463385;23;20040;-76
2022/11/20 04:48:24;;;;;;;16.33;8.85;;;;;;;-2.83;100.00;100294.91;6436811;23;20008;-76
2022/11/20 04:50:55;;;;;;;16.65;8.80;;;;;;;-2.81;100.00;100295.81;6463257;23;20004;-76
2022/11/20 04:53:26;;;;;;;15.35;7.90;;;;;;;-2.88;100.00;100294.00;6463886;23;20091;-76
2022/11/20 04:56:05;;;;;;;15.77;8.57;;;;;;;-2.85;100.00;100288.91;6462303;23;20066;-73
2022/11/20 04:58:35;;;;;;;21.38;11.27;;;;;;;-2.91;100.00;100288.84;6463064;23;20007;-75
2022/11/20 05:01:07;;;;;;;21.65;11.20;;;;;;;-2.92;100.00;100282.03;6463246;23;20008;-75
2022/11/20 05:03:37;;;;;;;20.23;10.50;;;;;;;-2.80;100.00;100284.75;6453407;23;20018;-75
2022/11/20 05:06:10;;;;;;;17.95;9.63;;;;;;;-2.79;100.00;100277.94;6463009;23;19996;-75
2022/11/20 05:08:41;;;;;;;18.10;9.52;;;;;;;-2.68;100.00;100279.78;6451370;23;20370;-75
2022/11/20 05:11:16;;;;;;;19.17;9.98;;;;;;;-2.73;100.00;100278.88;6462176;23;20004;-75
2022/11/20 05:13:47;;;;;;;17.80;9.82;;;;;;;-2.79;100.00;100293.25;6463112;23;20038;-75
2022/11/20 05:16:20;;;;;;;17.15;9.38;;;;;;;-2.87;100.00;100277.81;6462628;23;20036;-75
2022/11/20 05:18:52;;;;;;;17.02;9.43;;;;;;;-2.63;100.00;100282.38;6463223;23;20334;-75
2022/11/20 05:21:23;;;;;;;15.02;8.45;;;;;;;-2.86;100.00;100277.00;6463566;23;20370;-75
2022/11/20 05:23:53;;;;;;;17.52;9.40;;;;;;;-2.84;100.00;100277.84;6462908;23;20011;-75
2022/11/20 05:26:23;;;;;;;15.02;8.65;;;;;;;-2.85;100.00;100278.69;6462933;23;20000;-76
2022/11/20 05:28:54;;;;;;;17.83;9.60;;;;;;;-2.61;100.00;100273.91;6463522;23;20058;-75
2022/11/20 05:31:25;;;;;;;18.52;9.75;;;;;;;-2.77;100.00;100292.44;6463236;23;20047;-75
2022/11/20 05:33:56;;;;;;;16.58;9.35;;;;;;;-2.57;100.00;100287.56;6463796;23;20000;-72
2022/11/20 05:36:27;;;;;;;17.73;9.00;;;;;;;-2.71;100.00;100282.28;6425352;23;20078;-75
2022/11/20 05:38:57;;;;;;;17.25;9.43;;;;;;;-2.42;100.00;100275.81;6451165;23;20008;-75
2022/11/20 05:41:28;;;;;;;16.95;9.02;;;;;;;-2.52;100.00;100274.00;6426040;23;20007;-76
2022/11/20 05:43:58;;;;;;;15.80;9.10;;;;;;;-2.19;100.00;100271.81;6463493;23;20031;-75
2022/11/20 05:46:29;;;;;;;17.05;9.15;;;;;;;-2.15;100.00;100275.25;6463054;23;20284;-75
2022/11/20 05:48:59;;;;;;;18.15;9.32;;;;;;;-2.46;100.00;100271.53;6462567;23;20004;-74
2022/11/20 05:51:29;;;;;;;16.42;9.07;;;;;;;-2.20;100.00;100271.81;6462854;23;20422;-75
2022/11/20 05:53:59;;;;;;;15.10;8.27;;;;;;;-2.15;100.00;100259.91;6463657;23;20000;-75
2022/11/20 05:56:30;;;;;;;16.13;8.25;;;;;;;-2.15;100.00;100245.38;6462117;23;20007;-75
2022/11/20 05:59:00;;;;;;;15.27;7.78;;;;;;;-2.18;100.00;100235.13;6462604;23;20077;-75
2022/11/20 06:01:30;;;;;;;15.68;7.90;;;;;;;-2.28;100.00;100228.22;6425677;23;20398;-74
2022/11/20 06:04:01;;;;;;;14.07;8.07;;;;;;;-2.43;100.00;100232.31;6463416;23;20004;-76
2022/11/20 06:06:31;;;;;;;14.85;8.20;;;;;;;-2.48;100.00;100234.81;6462429;23;20382;-76
2022/11/20 06:09:01;;;;;;;15.15;8.68;;;;;;;-2.49;100.00;100238.22;6462689;23;20450;-75
2022/11/20 06:11:32;;;;;;;15.43;8.85;;;;;;;-2.27;100.00;100244.44;6462537;23;20004;-76
2022/11/20 06:14:02;;;;;;;13.05;7.97;;;;;;;-2.08;100.00;100251.44;6462881;23;20378;-75
2022/11/20 06:16:32;;;;;;;16.27;8.70;;;;;;;-1.94;100.00;100266.09;6424922;23;20000;-75
2022/11/20 06:19:03;;;;;;;14.18;8.13;;;;;;;-1.88;100.00;100250.78;6425729;23;20004;-75
2022/11/20 06:21:33;;;;;;;16.38;8.32;;;;;;;-1.96;100.00;100251.56;6464078;23;20359;-73
2022/11/20 06:24:04;;;;;;;14.40;7.63;;;;;;;-1.84;100.00;100256.78;6462545;23;20003;-75
2022/11/20 06:26:34;;;;;;;15.50;8.65;;;;;;;-1.90;100.00;100252.47;6461803;23;20057;-76
2022/11/20 06:29:04;;;;;;;16.15;8.77;;;;;;;-1.96;100.00;100257.50;6463342;23;20003;-75
2022/11/20 06:31:37;;;;;;;16.90;8.77;;;;;;;-1.89;100.00;100254.19;6463248;23;20076;-75
2022/11/20 06:34:08;;;;;;;18.00;9.55;;;;;;;-1.90;100.00;100255.03;6464281;23;20003;-75
2022/11/20 06:36:38;;;;;;;16.00;9.10;;;;;;;-1.64;100.00;100235.59;6463957;23;20058;-75
2022/11/20 06:39:09;;;;;;;19.58;9.27;;;;;;;-1.64;100.00;100245.84;6464695;23;20456;-75
2022/11/20 06:41:39;;;;;;;15.85;9.00;;;;;;;-1.41;100.00;100239.19;6465656;23;20070;-75
2022/11/20 06:44:09;;;;;;;15.43;8.70;;;;;;;-1.56;100.00;100239.91;6465140;23;20004;-74
2022/11/20 06:46:40;;;;;;;18.52;8.85;;;;;;;-1.30;100.00;100243.53;6454056;23;20012;-75
2022/11/20 06:49:10;;;;;;;16.52;9.13;;;;;;;-1.68;100.00;100249.22;6464251;23;20450;-75
2022/11/20 06:51:40;;;;;;;14.45;8.13;;;;;;;-1.46;100.00;100240.84;6464947;23;20000;-75
2022/11/20 06:54:11;;;;;;;16.63;8.25;;;;;;;-1.38;100.00;100234.91;6464933;23;20079;-75
2022/11/20 06:56:41;;;;;;;14.77;7.75;;;;;;;-1.23;100.00;100236.75;6464281;23;20000;-71
2022/11/20 06:59:11;;;;;;;15.32;8.73;;;;;;;-1.40;100.00;100235.78;6463243;23;20011;-75
2022/11/20 07:01:42;;;;;;;14.88;8.35;;;;;;;-1.33;100.00;100228.13;6427233;23;20091;-73
2022/11/20 07:04:12;;;;;;;13.70;8.05;;;;;;;-1.20;100.00;100221.38;6462768;23;20071;-76
2022/11/20 07:06:43;;;;;;;13.90;8.35;;;;;;;-1.32;100.00;100231.53;6425018;23;20004;-75
2022/11/20 07:09:13;;;;;;;14.70;8.32;;;;;;;-1.50;100.00;100234.00;6464285;23;20427;-75
2022/11/20 07:11:43;;;;;;;16.05;8.52;;;;;;;-1.55;100.00;100231.38;6464379;23;20488;-75
2022/11/20 07:14:13;;;;;;;15.00;8.07;;;;;;;-1.27;100.00;100235.00;6465087;23;20046;-75
2022/11/20 07:16:44;;;;;;;16.20;9.05;;;;;;;-1.44;100.00;100234.06;6464119;23;20095;-75
2022/11/20 07:19:14;;;;;;;15.65;8.98;;;;;;;-1.27;100.00;100233.28;6465127;23;20438;-76
2022/11/20 07:21:44;;;;;;;15.20;8.63;;;;;;;-1.43;100.00;100228.09;6463357;23;20004;-75
2022/11/20 07:24:15;;;;;;;14.25;8.32;;;;;;;-1.23;100.00;100224.75;6451960;23;20091;-75
2022/11/20 07:26:51;;;;;;;14.77;8.82;;;;;;;-1.22;100.00;100228.19;6464322;23;20010;-75
2022/11/20 07:29:21;;;;;;;13.95;8.32;;;;;;;-0.98;100.00;100226.63;6464533;23;20000;-75
2022/11/20 07:31:51;;;;;;;17.50;8.80;;;;;;;-1.03;100.00;100222.31;6465026;23;19999;-75
2022/11/20 07:34:22;;;;;;;15.07;8.52;;;;;;;-1.28;100.00;100231.59;6463828;23;20011;-74
2022/11/20 07:36:52;;;;;;;13.43;8.35;;;;;;;-1.22;100.00;100230.75;6462968;23;20271;-76
2022/11/20 07:39:23;;;;;;;14.70;8.27;;;;;;;-1.42;100.00;100227.22;6464469;23;20004;-75
2022/11/20 07:41:53;;;;;;;18.35;8.73;;;;;;;-1.37;100.00;100235.78;6464917;23;20000;-74
2022/11/20 07:44:23;;;;;;;14.82;8.52;;;;;;;-1.25;100.00;100233.31;6464840;23;20000;-72
2022/11/20 07:46:54;;;;;;;17.45;8.95;;;;;;;-1.26;100.00;100221.34;6425288;23;20792;-76
2022/11/20 07:49:24;;;;;;;16.17;8.75;;;;;;;-1.16;100.00;100234.22;6426834;23;20004;-75
2022/11/20 07:51:54;;;;;;;17.38;8.80;;;;;;;-0.98;100.00;100238.56;6463746;23;20427;-75
2022/11/20 07:54:24;;;;;;;16.08;8.68;;;;;;;-1.08;100.00;100229.97;6463656;23;20000;-75
2022/11/20 07:56:55;;;;;;;16.35;8.48;;;;;;;-1.02;100.00;100229.16;6461219;23;20000;-75
2022/11/20 07:59:25;;;;;;;14.90;8.55;;;;;;;-1.01;99.18;100225.75;6462745;23;20028;-74
2022/11/20 08:01:55;;;;;;;15.68;8.38;;;;;;;-0.89;99.45;100223.25;6464314;23;20004;-75
2022/11/20 08:04:25;;;;;;;14.75;8.43;;;;;;;-1.06;100.00;100228.28;6464502;23;20497;-75
2022/11/20 08:06:56;;;;;;;16.48;9.40;;;;;;;-0.98;100.00;100230.88;6425844;23;20007;-74
2022/11/20 08:09:26;;;;;;;13.15;7.78;;;;;;;-1.02;100.00;100221.47;6463911;23;20012;-74
2022/11/20 08:14:45;;;;;;;15.52;8.80;;;;;;;-0.90;100.00;100218.97;6464229;23;20011;-75
2022/11/20 08:19:55;;;;;;;17.42;8.98;;;;;;;-1.04;100.00;100228.28;6465801;22;19919;-75
2022/11/20 08:22:26;;;;;;;15.82;8.45;;;;;;;-0.91;100.00;100222.38;6492058;22;20012;-74
2022/11/20 08:24:56;;;;;;;16.30;8.57;;;;;;;-0.80;100.00;100229.25;6494780;22;20023;-75
2022/11/20 08:27:26;;;;;;;22.50;8.93;;;;;;;-0.76;100.00;100230.13;6456731;22;20025;-76
2022/11/20 08:29:57;;;;;;;15.43;8.30;;;;;;;-0.76;100.00;100235.28;6494220;22;20000;-75
2022/11/20 08:32:27;;;;;;;16.15;8.98;;;;;;;-0.87;100.00;100239.47;6484932;22;20049;-75
2022/11/20 08:34:57;;;;;;;17.17;8.95;;;;;;;-0.58;99.73;100233.59;6456085;22;20042;-75
2022/11/20 08:37:28;;;;;;;21.08;9.63;;;;;;;-0.77;99.41;100241.22;6494812;22;20081;-75
2022/11/20 08:39:58;;;;;;;16.95;9.10;;;;;;;-0.77;100.00;100236.97;6484451;22;20022;-74
2022/11/20 08:42:28;;;;;;;23.38;11.68;;;;;;;-0.81;100.00;100232.69;6495143;22;20509;-75
2022/11/20 08:44:58;;;;;;;20.85;10.10;;;;;;;-0.90;100.00;100239.47;6494371;22;20007;-75
2022/11/20 08:47:29;;;;;;;19.38;10.30;;;;;;;-0.67;100.00;100243.84;6494641;22;20011;-75
2022/11/20 08:49:59;;;;;;;24.45;12.02;;;;;;;-0.66;100.00;100244.69;6494804;22;20013;-75
2022/11/20 08:52:29;;;;;;;17.42;10.10;;;;;;;-0.66;100.00;100239.56;6484112;22;20031;-75
2022/11/20 08:55:00;;;;;;;19.92;10.35;;;;;;;-0.69;100.00;100240.41;6484308;22;20015;-75
2022/11/20 08:57:34;;;;;;;19.55;10.15;;;;;;;-0.39;100.00;100244.81;6493120;22;20007;-75
2022/11/20 09:00:07;;;;;;;20.13;10.50;;;;;;;-0.47;99.10;100237.06;6495005;22;20007;-76
2022/11/20 09:02:37;;;;;;;20.45;10.40;;;;;;;-0.42;100.00;100231.97;6495148;22;20003;-76
2022/11/20 09:05:07;;;;;;;19.05;10.23;;;;;;;-0.47;99.47;100234.50;6495153;22;19995;-75
2022/11/20 09:07:38;;;;;;;18.77;9.90;;;;;;;-0.13;99.55;100222.59;6494867;22;20007;-74
2022/11/20 09:10:09;;;;;;;19.13;10.00;;;;;;;-0.35;98.35;100229.38;6493904;22;20434;-75
2022/11/20 09:12:40;;;;;;;18.45;10.00;;;;;;;-0.27;96.93;100227.72;6494570;22;20434;-75
2022/11/20 09:15:11;;;;;;;20.25;9.95;;;;;;;-0.40;98.50;100220.81;6494612;22;20041;-75
2022/11/20 09:17:41;;;;;;;20.08;10.48;;;;;;;-0.38;97.93;100216.56;6493612;22;20098;-75
2022/11/20 09:20:13;;;;;;;20.90;10.23;;;;;;;-0.05;97.27;100216.59;6494750;22;20011;-75
2022/11/20 09:22:44;;;;;;;18.40;9.85;;;;;;;-0.18;96.23;100208.91;6494292;22;20403;-76
2022/11/20 09:25:15;;;;;;;19.40;10.25;;;;;;;-0.19;97.76;100215.72;6494157;22;20030;-76
2022/11/20 09:27:45;;;;;;;23.33;10.70;;;;;;;-0.14;96.97;100213.16;6493747;22;20452;-76
2022/11/20 09:30:16;;;;;;;18.98;10.05;;;;;;;-0.02;96.91;100204.63;6494533;22;20041;-76
2022/11/20 09:32:46;;;;;;;17.52;9.52;;;;;;;0.27;95.30;100199.50;6454481;22;20003;-76
2022/11/20 09:35:17;;;;;;;18.73;8.95;;;;;;;0.24;94.35;100208.03;6488006;22;20439;-75
2022/11/20 09:37:48;;;;;;;15.98;8.95;;;;;;;0.31;95.97;100198.63;6488027;22;20053;-74
2022/11/20 09:40:22;;;;;;;14.75;8.60;;;;;;;0.47;95.85;100190.91;6490871;22;20000;-76
2022/11/20 09:43:25;;;;;;;16.73;9.25;;;;;;;0.57;94.91;100190.00;6480600;22;20024;-75
2022/11/20 09:46:11;;;;;;;13.73;7.82;;;;;;;0.56;94.38;100187.47;6477690;22;20012;-76
2022/11/20 09:49:00;;;;;;;14.05;8.18;;;;;;;0.48;95.23;100194.31;6490294;22;20446;-76
2022/11/20 09:51:47;;;;;;;14.73;8.80;;;;;;;0.58;93.83;100196.88;6492407;22;20585;-76
2022/11/20 09:54:21;;;;;;;17.83;9.77;;;;;;;0.90;94.15;100194.25;6488005;22;20000;-76
2022/11/20 09:57:00;;;;;;;19.65;10.57;;;;;;;1.07;91.94;100198.44;6453713;22;20554;-76
2022/11/20 09:59:39;;;;;;;19.02;10.38;;;;;;;0.92;91.65;100193.34;6485874;22;20083;-76
2022/11/20 10:02:16;;;;;;;17.63;9.07;;;;;;;1.22;91.31;100193.25;6491403;22;20339;-75
2022/11/20 10:04:59;;;;;;;14.60;8.75;;;;;;;1.29;91.02;100184.66;6452349;22;20068;-76
2022/11/20 10:07:48;;;;;;;14.50;7.95;;;;;;;1.23;89.98;100179.50;6453755;22;20019;-76
2022/11/20 10:10:29;;;;;;;14.27;7.72;;;;;;;1.51;89.65;100181.09;6485619;22;20015;-76
2022/11/20 10:13:08;;;;;;;16.40;8.52;;;;;;;1.60;89.39;100178.44;6494109;22;20434;-76
2022/11/20 10:16:00;;;;;;;15.02;8.23;;;;;;;1.90;88.31;100171.38;6484753;22;20034;-75
2022/11/20 10:19:11;;;;;;;15.68;8.15;;;;;;;1.97;88.55;100161.88;6490720;22;20004;-76
2022/11/20 10:21:56;;;;;;;16.38;8.30;;;;;;;1.83;86.91;100161.13;6436141;22;20004;-76
2022/11/20 10:25:03;;;;;;;16.50;8.05;;;;;;;1.95;86.94;100164.47;6493012;22;20434;-75
2022/11/20 10:27:51;;;;;;;16.30;9.10;;;;;;;1.66;87.59;100181.00;6463077;22;20004;-76
2022/11/20 10:30:24;;;;;;;17.55;9.77;;;;;;;1.82;87.17;100178.28;6489919;22;20373;-76
2022/11/20 10:33:03;;;;;;;17.90;9.45;;;;;;;2.07;86.90;100179.84;6494867;22;20014;-76
2022/11/20 10:35:49;;;;;;;16.38;8.43;;;;;;;1.88;89.48;100183.41;6491589;22;20012;-76
2022/11/20 10:38:31;;;;;;;18.70;9.23;;;;;;;1.83;87.74;100174.84;6494642;22;20346;-76
2022/11/20 10:43:57;;;;;;;15.40;7.90;;;;;;;1.87;86.77;100173.13;6496840;22;20061;-75
2022/11/20 10:46:38;;;;;;;15.70;8.25;;;;;;;2.02;83.90;100170.44;6488920;22;20086;-76
2022/11/20 10:49:17;;;;;;;17.05;7.18;;;;;;;2.21;83.57;100164.25;6494217;22;20007;-76
2022/11/20 10:52:07;;;;;;;13.02;7.25;;;;;;;1.83;83.20;100161.13;6488368;22;20014;-76
2022/11/20 10:54:51;;;;;;;14.00;7.35;;;;;;;2.09;84.22;100156.63;6485378;22;20071;-75
2022/11/20 10:57:56;;;;;;;15.00;8.50;;;;;;;2.27;84.16;100157.31;6486762;22;20004;-76
2022/11/20 11:00:27;;;;;;;14.90;8.10;;;;;;;2.29;83.57;100154.69;6494383;22;20436;-75
2022/11/20 11:03:02;;;;;;;13.05;6.85;;;;;;;2.32;82.70;100150.38;6485940;22;20011;-75
2022/11/20 11:05:46;;;;;;;12.07;6.07;;;;;;;2.25;82.68;100147.88;6493311;22;20003;-76
2022/11/20 11:08:19;;;;;;;11.82;6.72;;;;;;;2.32;82.95;100140.06;6484234;22;20264;-76
2022/11/20 11:10:58;;;;;;;12.60;7.57;;;;;;;2.22;81.48;100142.75;6456466;22;20378;-76
2022/11/20 11:13:30;;;;;;;15.20;8.07;;;;;;;2.04;83.09;100133.47;6478480;22;20014;-75
2022/11/20 11:16:02;;;;;;;13.00;7.07;;;;;;;2.32;81.57;100131.50;6493152;22;19999;-75
2022/11/20 11:18:34;;;;;;;12.45;7.05;;;;;;;2.30;81.03;100135.81;6480098;22;20019;-76
2022/11/20 11:21:05;;;;;;;13.15;7.00;;;;;;;2.14;81.91;100135.09;6489322;22;20008;-74
2022/11/20 11:23:42;;;;;;;13.13;7.45;;;;;;;2.07;82.94;100142.88;6481316;22;20007;-75
2022/11/20 11:26:21;;;;;;;13.68;7.63;;;;;;;2.19;82.70;100135.06;6490238;22;20019;-75
2022/11/20 11:29:00;;;;;;;11.45;7.00;;;;;;;2.20;83.02;100131.63;6481477;22;20029;-75
2022/11/20 11:31:33;;;;;;;13.30;7.50;;;;;;;2.07;82.00;100132.59;6489923;22;20027;-75
2022/11/20 11:34:16;;;;;;;10.95;6.93;;;;;;;1.97;81.56;100133.53;6481787;22;20685;-75
2022/11/20 11:36:57;;;;;;;10.13;6.45;;;;;;;2.03;82.57;100130.91;6478651;22;20034;-74
2022/11/20 11:39:29;;;;;;;11.93;6.57;;;;;;;2.05;81.95;100127.47;6480091;22;20516;-75
2022/11/20 11:42:00;;;;;;;11.38;6.25;;;;;;;1.87;81.61;100139.63;6491570;22;20494;-74
2022/11/20 11:47:24;;;;;;;11.23;6.60;;;;;;;2.08;82.79;100129.13;6490165;22;20011;-75
2022/11/20 11:50:18;;;;;;;14.00;7.43;;;;;;;2.04;81.27;100125.75;6452699;22;20418;-75